createdAt,value
2018-07-24T00:00:09.430Z,10.67
2018-07-24T00:03:11.484Z,10.47
2018-07-24T00:06:17.568Z,11.17
2018-07-24T00:09:20.867Z,10.07
2018-07-24T00:12:22.937Z,9.77
2018-07-24T00:15:25.027Z,10.03
2018-07-24T00:18:29.114Z,9.80
2018-07-24T00:21:31.248Z,10.03
2018-07-24T00:24:33.360Z,9.67
2018-07-24T00:27:35.299Z,10.07
2018-07-24T00:30:37.372Z,9.73
2018-07-24T00:33:39.476Z,10.10
2018-07-24T00:36:41.544Z,9.97
2018-07-24T00:39:43.582Z,10.83
2018-07-24T00:42:45.546Z,10.77
2018-07-24T00:45:47.623Z,10.10
2018-07-24T00:48:50.793Z,10.40
2018-07-24T00:51:52.743Z,10.03
2018-07-24T00:54:54.887Z,9.60
2018-07-24T00:57:56.918Z,9.73
2018-07-24T01:00:58.939Z,10.07
2018-07-24T01:04:01.157Z,10.40
2018-07-24T01:07:03.302Z,10.90
2018-07-24T01:10:06.306Z,10.40
2018-07-24T01:13:08.335Z,11.13
2018-07-24T01:16:10.399Z,10.20
2018-07-24T01:19:12.479Z,10.50
2018-07-24T01:22:14.635Z,10.57
2018-07-24T01:25:16.713Z,10.67
2018-07-24T01:28:18.726Z,10.80
2018-07-24T01:31:20.869Z,10.10
2018-07-24T01:34:22.946Z,10.27
2018-07-24T01:37:24.853Z,10.47
2018-07-24T01:40:26.966Z,10.60
2018-07-24T01:43:29.040Z,10.10
2018-07-24T01:46:31.121Z,10.33
2018-07-24T01:49:33.255Z,9.37
2018-07-24T01:52:35.319Z,9.93
2018-07-24T01:55:37.410Z,9.87
2018-07-24T01:58:39.355Z,10.40
2018-07-24T02:01:42.164Z,10.40
2018-07-24T02:04:44.319Z,9.57
2018-07-24T02:07:46.302Z,10.30
2018-07-24T02:10:48.391Z,10.63
2018-07-24T02:13:51.203Z,10.67
2018-07-24T02:16:53.505Z,10.40
2018-07-24T02:19:55.451Z,10.23
2018-07-24T02:22:57.657Z,10.13
2018-07-24T02:25:59.656Z,10.30
2018-07-24T02:29:01.731Z,10.13
2018-07-24T02:32:12.128Z,10.40
2018-07-24T02:35:14.451Z,10.47
2018-07-24T02:38:16.580Z,10.50
2018-07-24T02:41:18.715Z,10.70
2018-07-24T02:44:21.910Z,9.70
2018-07-24T02:47:24.169Z,10.00
2018-07-24T02:50:26.280Z,9.60
2018-07-24T02:53:28.491Z,10.77
2018-07-24T02:56:30.642Z,10.57
2018-07-24T02:59:32.659Z,10.37
2018-07-24T03:02:34.824Z,10.20
2018-07-24T03:05:37.804Z,10.27
2018-07-24T03:08:40.130Z,10.13
2018-07-24T03:11:42.479Z,10.20
2018-07-24T03:14:45.889Z,10.40
2018-07-24T03:17:48.056Z,9.97
2018-07-24T03:20:50.147Z,10.23
2018-07-24T03:23:52.942Z,10.53
2018-07-24T03:26:55.075Z,10.20
2018-07-24T03:29:57.129Z,9.87
2018-07-24T03:32:59.212Z,10.07
2018-07-24T03:36:01.339Z,10.20
2018-07-24T03:39:06.695Z,10.40
2018-07-24T03:42:10.330Z,10.90
2018-07-24T03:45:13.489Z,10.53
2018-07-24T03:48:15.678Z,10.23
2018-07-24T03:51:17.766Z,10.57
2018-07-24T03:54:19.883Z,10.30
2018-07-24T03:57:22.900Z,10.67
2018-07-24T04:00:25.027Z,10.30
2018-07-24T04:03:27.173Z,10.07
2018-07-24T04:06:29.259Z,10.60
2018-07-24T04:09:31.396Z,10.90
2018-07-24T04:12:33.536Z,10.83
2018-07-24T04:15:35.681Z,10.90
2018-07-24T04:18:44.018Z,10.90
2018-07-24T04:21:46.200Z,11.23
2018-07-24T04:24:48.371Z,10.97
2018-07-24T04:27:50.583Z,11.00
2018-07-24T04:30:59.109Z,11.73
2018-07-24T04:34:01.173Z,11.20
2018-07-24T04:37:03.258Z,12.50
2018-07-24T04:40:10.256Z,11.83
2018-07-24T04:43:12.511Z,11.60
2018-07-24T04:46:14.719Z,11.23
2018-07-24T04:49:16.904Z,11.57
2018-07-24T04:52:19.021Z,11.67
2018-07-24T04:55:22.139Z,11.83
2018-07-24T04:58:24.143Z,11.70
2018-07-24T05:01:27.354Z,11.57
2018-07-24T05:04:29.552Z,11.80
2018-07-24T05:07:31.619Z,12.63
2018-07-24T05:10:33.819Z,12.50
2018-07-24T05:13:35.871Z,13.27
2018-07-24T05:16:38.172Z,13.07
2018-07-24T05:19:40.383Z,13.67
2018-07-24T05:22:42.953Z,12.13
2018-07-24T05:25:44.982Z,13.53
2018-07-24T05:28:47.155Z,13.90
2018-07-24T05:31:49.251Z,13.23
2018-07-24T05:34:51.754Z,13.70
2018-07-24T05:37:53.851Z,14.30
2018-07-24T05:40:55.965Z,14.00
2018-07-24T05:43:58.083Z,13.77
2018-07-24T05:47:00.055Z,15.30
2018-07-24T05:50:02.190Z,12.93
2018-07-24T05:53:05.486Z,11.70
2018-07-24T05:56:08.623Z,12.20
2018-07-24T05:59:10.683Z,11.17
2018-07-24T06:02:12.922Z,10.87
2018-07-24T06:05:14.879Z,9.60
2018-07-24T06:08:16.980Z,9.93
2018-07-24T06:11:19.071Z,10.33
2018-07-24T06:14:21.204Z,10.00
2018-07-24T06:17:23.643Z,9.90
2018-07-24T06:20:25.582Z,9.67
2018-07-24T06:23:27.644Z,10.33
2018-07-24T06:26:29.701Z,10.23
2018-07-24T06:29:31.696Z,11.00
2018-07-24T06:32:33.789Z,11.30
2018-07-24T06:35:35.886Z,11.53
2018-07-24T06:38:39.023Z,13.90
2018-07-24T06:41:41.582Z,13.30
2018-07-24T06:44:43.652Z,13.53
2018-07-24T06:47:45.746Z,14.23
2018-07-24T06:50:47.663Z,14.73
2018-07-24T06:53:49.755Z,14.30
2018-07-24T06:56:51.806Z,14.30
2018-07-24T06:59:54.923Z,14.57
2018-07-24T07:02:57.038Z,13.33
2018-07-24T07:05:59.143Z,12.97
2018-07-24T07:09:04.247Z,12.87
2018-07-24T07:12:06.373Z,14.37
2018-07-24T07:15:08.759Z,13.70
2018-07-24T07:18:10.796Z,13.43
2018-07-24T07:21:13.906Z,13.13
2018-07-24T07:24:15.927Z,14.20
2018-07-24T07:27:17.935Z,13.97
2018-07-24T07:30:20.067Z,14.20
2018-07-24T07:33:22.186Z,14.30
2018-07-24T07:36:24.258Z,15.20
2018-07-24T07:39:26.434Z,14.60
2018-07-24T07:42:28.509Z,13.87
2018-07-24T07:45:30.558Z,13.80
2018-07-24T07:48:32.760Z,14.23
2018-07-24T07:51:36.950Z,13.13
2018-07-24T07:54:38.893Z,13.53
2018-07-24T07:57:41.018Z,13.37
2018-07-24T08:00:43.126Z,11.77
2018-07-24T08:03:45.213Z,12.53
2018-07-24T08:06:47.326Z,11.47
2018-07-24T08:09:50.384Z,11.70
2018-07-24T08:12:52.449Z,11.10
2018-07-24T08:15:54.638Z,11.03
2018-07-24T08:18:56.775Z,11.07
2018-07-24T08:21:58.891Z,10.20
2018-07-24T08:25:00.914Z,10.03
2018-07-24T08:28:03.030Z,9.70
2018-07-24T08:31:05.907Z,10.40
2018-07-24T08:34:08.077Z,10.43
2018-07-24T08:37:10.156Z,9.43
2018-07-24T08:40:12.230Z,9.67
2018-07-24T08:43:14.372Z,9.80
2018-07-24T08:46:16.493Z,9.70
2018-07-24T08:49:18.620Z,9.03
2018-07-24T08:52:20.584Z,10.00
2018-07-24T08:55:22.974Z,9.93
2018-07-24T08:58:24.586Z,9.60
2018-07-24T09:01:26.739Z,9.20
2018-07-24T09:04:28.772Z,9.40
2018-07-24T09:07:30.820Z,9.00
2018-07-24T09:10:32.986Z,8.90
2018-07-24T09:13:35.044Z,8.80
2018-07-24T09:16:38.742Z,9.20
2018-07-24T09:19:40.835Z,9.40
2018-07-24T09:22:42.891Z,8.73
2018-07-24T09:25:45.015Z,9.57
2018-07-24T09:28:47.032Z,8.27
2018-07-24T09:31:49.187Z,8.43
2018-07-24T09:34:51.135Z,8.27
2018-07-24T09:37:53.149Z,8.70
2018-07-24T09:40:55.230Z,8.37
2018-07-24T09:43:57.259Z,7.87
2018-07-24T09:46:59.527Z,8.50
2018-07-24T09:50:01.645Z,8.17
2018-07-24T09:53:03.687Z,7.47
2018-07-24T09:56:06.686Z,8.60
2018-07-24T09:59:08.783Z,7.80
2018-07-24T10:02:11.342Z,7.77
2018-07-24T10:05:13.496Z,7.93
2018-07-24T10:08:15.619Z,7.17
2018-07-24T10:11:17.749Z,7.40
2018-07-24T10:14:19.667Z,7.30
2018-07-24T10:17:21.781Z,7.43
2018-07-24T10:20:23.861Z,7.70
2018-07-24T10:23:25.931Z,7.40
2018-07-24T10:26:28.108Z,6.70
2018-07-24T10:29:30.283Z,7.23
2018-07-24T10:32:32.366Z,6.63
2018-07-24T10:35:34.405Z,6.83
2018-07-24T10:38:37.284Z,6.83
2018-07-24T10:41:39.351Z,6.93
2018-07-24T10:44:41.331Z,7.20
2018-07-24T10:47:43.425Z,7.13
2018-07-24T10:50:45.433Z,7.60
2018-07-24T10:53:47.621Z,6.80
2018-07-24T10:56:49.724Z,6.90
2018-07-24T10:59:51.814Z,7.10
2018-07-24T11:02:53.953Z,6.77
2018-07-24T11:05:56.118Z,6.87
2018-07-24T11:08:58.171Z,6.70
2018-07-24T11:12:00.164Z,5.83
2018-07-24T11:15:02.405Z,5.50
2018-07-24T11:18:04.571Z,6.53
2018-07-24T11:21:06.768Z,5.80
2018-07-24T11:24:08.858Z,6.70
2018-07-24T11:27:10.884Z,6.50
2018-07-24T11:30:12.991Z,5.90
2018-07-24T11:33:15.135Z,5.93
2018-07-24T11:36:17.172Z,6.37
2018-07-24T11:39:20.251Z,6.10
2018-07-24T11:42:22.608Z,6.33
2018-07-24T11:45:24.631Z,6.00
2018-07-24T11:48:26.770Z,6.00
2018-07-24T11:51:28.824Z,6.60
2018-07-24T11:54:30.979Z,6.00
2018-07-24T11:57:33.024Z,6.20
2018-07-24T12:00:35.185Z,6.20
2018-07-24T12:03:37.313Z,6.13
2018-07-24T12:06:40.399Z,6.03
2018-07-24T12:09:42.459Z,5.60
2018-07-24T12:12:44.378Z,5.27
2018-07-24T12:15:46.495Z,4.90
2018-07-24T12:18:48.553Z,5.73
2018-07-24T12:21:50.647Z,5.80
2018-07-24T12:24:52.722Z,6.00
2018-07-24T12:27:54.769Z,6.47
2018-07-24T12:30:56.813Z,6.00
2018-07-24T12:33:58.920Z,6.07
2018-07-24T12:37:01.013Z,5.23
2018-07-24T12:40:03.262Z,6.10
2018-07-24T12:43:06.480Z,5.83
2018-07-24T12:46:08.541Z,5.03
2018-07-24T12:49:10.719Z,4.93
2018-07-24T12:52:12.678Z,5.17
2018-07-24T12:55:14.801Z,5.30
2018-07-24T12:58:16.918Z,5.53
2018-07-24T13:01:19.015Z,5.40
2018-07-24T13:04:21.062Z,5.53
2018-07-24T13:07:23.135Z,5.30
2018-07-24T13:10:25.544Z,5.97
2018-07-24T13:13:27.643Z,5.90
2018-07-24T13:16:30.839Z,5.60
2018-07-24T13:19:33.033Z,5.83
2018-07-24T13:22:35.922Z,5.90
2018-07-24T13:25:38.025Z,5.90
2018-07-24T13:28:40.042Z,6.03
2018-07-24T13:31:42.252Z,6.30
2018-07-24T13:34:46.572Z,5.93
2018-07-24T13:37:48.631Z,5.97
2018-07-24T13:40:50.709Z,5.97
2018-07-24T13:43:52.949Z,6.10
2018-07-24T13:46:55.057Z,5.60
2018-07-24T13:49:57.089Z,5.47
2018-07-24T13:52:59.131Z,5.50
2018-07-24T13:56:01.260Z,5.50
2018-07-24T13:59:03.440Z,5.47
2018-07-24T14:02:07.127Z,5.50
2018-07-24T14:05:09.192Z,5.53
2018-07-24T14:08:11.264Z,5.33
2018-07-24T14:11:13.447Z,4.93
2018-07-24T14:14:15.643Z,5.50
2018-07-24T14:17:17.661Z,5.27
2018-07-24T14:20:19.883Z,5.13
2018-07-24T14:23:21.850Z,5.20
2018-07-24T14:26:23.881Z,5.73
2018-07-24T14:29:26.046Z,5.60
2018-07-24T14:32:28.129Z,5.80
2018-07-24T14:35:30.243Z,5.60
2018-07-24T14:38:32.366Z,5.43
2018-07-24T14:41:34.439Z,5.10
2018-07-24T14:44:36.814Z,5.57
2018-07-24T14:47:52.622Z,5.47
2018-07-24T14:50:55.522Z,5.37
2018-07-24T14:53:57.528Z,5.13
2018-07-24T14:56:59.639Z,5.57
2018-07-24T15:00:01.753Z,4.90
2018-07-24T15:03:03.694Z,4.63
2018-07-24T15:06:06.732Z,4.80
2018-07-24T15:09:10.580Z,5.07
2018-07-24T15:12:12.645Z,4.87
2018-07-24T15:15:14.813Z,5.07
2018-07-24T15:18:16.938Z,5.23
2018-07-24T15:21:19.016Z,5.10
2018-07-24T15:24:21.237Z,5.77
2018-07-24T15:27:23.326Z,4.97
2018-07-24T15:30:25.420Z,5.73
2018-07-24T15:33:27.518Z,5.30
2018-07-24T15:36:29.661Z,4.87
2018-07-24T15:39:31.680Z,5.60
2018-07-24T15:42:33.639Z,4.97
2018-07-24T15:45:35.995Z,5.53
2018-07-24T15:48:38.227Z,5.07
2018-07-24T15:51:40.369Z,4.90
2018-07-24T15:54:42.692Z,5.00
2018-07-24T15:57:45.018Z,5.37
2018-07-24T16:00:47.025Z,5.60
2018-07-24T16:03:51.024Z,5.00
2018-07-24T16:06:53.172Z,5.03
2018-07-24T16:09:55.231Z,5.77
2018-07-24T16:12:57.238Z,5.27
2018-07-24T16:15:59.399Z,5.87
2018-07-24T16:19:01.703Z,5.30
2018-07-24T16:22:03.867Z,4.83
2018-07-24T16:25:06.038Z,5.20
2018-07-24T16:28:08.096Z,5.60
2018-07-24T16:31:10.158Z,5.13
2018-07-24T16:34:12.251Z,4.97
2018-07-24T16:37:14.408Z,4.90
2018-07-24T16:40:16.398Z,4.70
2018-07-24T16:43:18.503Z,5.30
2018-07-24T16:46:20.527Z,5.30
2018-07-24T16:49:22.658Z,4.77
2018-07-24T16:52:24.734Z,5.10
2018-07-24T16:55:26.807Z,5.40
2018-07-24T16:58:29.019Z,4.80
2018-07-24T17:01:31.076Z,5.20
2018-07-24T17:04:33.211Z,5.20
2018-07-24T17:07:37.354Z,5.43
2018-07-24T17:10:39.334Z,4.80
2018-07-24T17:13:41.465Z,5.37
2018-07-24T17:16:43.487Z,5.43
2018-07-24T17:19:45.610Z,5.30
2018-07-24T17:22:47.751Z,5.10
2018-07-24T17:25:49.797Z,4.77
2018-07-24T17:28:51.860Z,5.67
2018-07-24T17:31:54.058Z,5.40
2018-07-24T17:34:56.130Z,5.60
2018-07-24T17:37:58.083Z,5.47
2018-07-24T17:41:00.292Z,5.30
2018-07-24T17:44:07.236Z,5.47
2018-07-24T17:47:09.287Z,4.83
2018-07-24T17:50:11.459Z,5.30
2018-07-24T17:53:13.771Z,5.40
2018-07-24T17:56:15.950Z,5.13
2018-07-24T17:59:18.052Z,5.50
2018-07-24T18:02:20.214Z,5.63
2018-07-24T18:05:22.155Z,5.77
2018-07-24T18:08:24.275Z,5.80
2018-07-24T18:11:26.462Z,5.40
2018-07-24T18:14:28.618Z,5.70
2018-07-24T18:17:31.719Z,5.50
2018-07-24T18:20:33.790Z,5.43
2018-07-24T18:23:37.550Z,5.10
2018-07-24T18:26:39.691Z,6.00
2018-07-24T18:29:41.743Z,5.70
2018-07-24T18:32:43.903Z,5.50
2018-07-24T18:35:45.991Z,5.43
2018-07-24T18:38:48.084Z,5.63
2018-07-24T18:41:50.096Z,6.13
2018-07-24T18:44:52.184Z,5.43
2018-07-24T18:47:54.317Z,5.60
2018-07-24T18:50:56.391Z,5.53
2018-07-24T18:53:58.377Z,5.90
2018-07-24T18:57:01.519Z,5.70
2018-07-24T19:00:04.416Z,5.90
2018-07-24T19:03:06.612Z,6.43
2018-07-24T19:06:08.787Z,6.70
2018-07-24T19:09:11.801Z,6.63
2018-07-24T19:12:13.971Z,7.20
2018-07-24T19:15:17.067Z,7.13
2018-07-24T19:18:19.243Z,6.70
2018-07-24T19:21:21.275Z,6.87
2018-07-24T19:24:23.236Z,6.40
2018-07-24T19:27:25.344Z,7.37
2018-07-24T19:30:27.537Z,6.93
2018-07-24T19:33:30.774Z,6.90
2018-07-24T19:36:32.953Z,6.67
2018-07-24T19:39:35.111Z,6.90
2018-07-24T19:42:37.195Z,6.83
2018-07-24T19:45:40.179Z,6.80
2018-07-24T19:48:42.482Z,7.30
2018-07-24T19:51:44.604Z,7.03
2018-07-24T19:54:46.687Z,7.30
2018-07-24T19:57:48.806Z,7.00
2018-07-24T20:00:50.975Z,7.40
2018-07-24T20:03:54.099Z,7.30
2018-07-24T20:06:57.225Z,7.10
2018-07-24T20:09:59.339Z,7.60
2018-07-24T20:13:01.586Z,7.10
2018-07-24T20:16:03.732Z,6.93
2018-07-24T20:19:05.956Z,7.60
2018-07-24T20:22:08.195Z,7.00
2018-07-24T20:25:11.343Z,7.93
2018-07-24T20:28:13.330Z,7.20
2018-07-24T20:31:15.606Z,7.27
2018-07-24T20:34:17.930Z,7.43
2018-07-24T20:37:19.964Z,7.23
2018-07-24T20:40:22.112Z,7.67
2018-07-24T20:43:24.197Z,8.57
2018-07-24T20:46:26.337Z,8.00
2018-07-24T20:49:28.311Z,7.80
2018-07-24T20:52:30.290Z,7.60
2018-07-24T20:55:32.400Z,7.70
2018-07-24T20:58:34.483Z,7.30
2018-07-24T21:01:36.648Z,7.60
2018-07-24T21:04:38.700Z,7.13
2018-07-24T21:07:41.517Z,6.83
2018-07-24T21:10:43.539Z,7.30
2018-07-24T21:13:45.659Z,7.07
2018-07-24T21:16:47.744Z,6.80
2018-07-24T21:19:49.888Z,7.33
2018-07-24T21:22:51.943Z,6.90
2018-07-24T21:25:54.063Z,7.17
2018-07-24T21:28:56.188Z,7.50
2018-07-24T21:32:00.171Z,6.90
2018-07-24T21:35:02.289Z,7.80
2018-07-24T21:38:04.377Z,7.07
2018-07-24T21:41:06.696Z,7.30
2018-07-24T21:44:08.871Z,7.47
2018-07-24T21:47:11.020Z,7.30
2018-07-24T21:50:13.179Z,7.03
2018-07-24T21:53:15.232Z,7.70
2018-07-24T21:56:17.368Z,7.50
2018-07-24T21:59:19.499Z,7.37
2018-07-24T22:02:21.624Z,8.00
2018-07-24T22:05:23.638Z,7.93
2018-07-24T22:08:25.621Z,8.00
2018-07-24T22:11:32.635Z,7.57
2018-07-24T22:14:35.722Z,7.43
2018-07-24T22:17:37.769Z,7.30
2018-07-24T22:20:39.831Z,7.30
2018-07-24T22:23:42.847Z,7.40
2018-07-24T22:26:45.020Z,8.50
2018-07-24T22:29:47.112Z,7.50
2018-07-24T22:32:49.144Z,7.83
2018-07-24T22:35:51.229Z,7.80
2018-07-24T22:38:53.190Z,7.63
2018-07-24T22:41:55.232Z,7.53
2018-07-24T22:44:57.231Z,7.50
2018-07-24T22:48:00.289Z,7.50
2018-07-24T22:51:02.435Z,7.57
2018-07-24T22:54:04.460Z,8.10
2018-07-24T22:57:06.551Z,7.87
2018-07-24T23:00:08.523Z,7.83
2018-07-24T23:03:11.056Z,7.97
2018-07-24T23:06:13.104Z,7.87
2018-07-24T23:09:15.062Z,7.37
2018-07-24T23:12:17.089Z,7.47
2018-07-24T23:15:19.156Z,7.93
2018-07-24T23:18:21.294Z,7.80
2018-07-24T23:21:23.383Z,7.60
2018-07-24T23:24:26.459Z,7.87
2018-07-24T23:27:28.519Z,8.10
2018-07-24T23:30:36.427Z,7.70
2018-07-24T23:33:38.519Z,8.07
2018-07-24T23:36:41.486Z,8.17
2018-07-24T23:39:43.576Z,7.90
2018-07-24T23:42:45.647Z,8.67
2018-07-24T23:45:47.700Z,8.00
2018-07-24T23:48:49.800Z,8.00
2018-07-24T23:51:51.814Z,8.03
2018-07-24T23:54:53.913Z,7.97
2018-07-24T23:57:56.151Z,8.23
